createdAt,value
2018-02-19T00:02:09.307Z,49.80
2018-02-19T00:04:38.559Z,44.07
2018-02-19T00:07:07.708Z,43.40
2018-02-19T00:09:36.988Z,43.53
2018-02-19T00:12:06.242Z,50.63
2018-02-19T00:14:34.742Z,45.30
2018-02-19T00:17:03.263Z,45.80
2018-02-19T00:19:32.406Z,47.83
2018-02-19T00:22:01.108Z,44.50
2018-02-19T00:24:29.590Z,46.90
2018-02-19T00:26:57.966Z,40.20
2018-02-19T00:29:26.501Z,41.43
2018-02-19T00:31:55.195Z,50.73
2018-02-19T00:34:23.569Z,49.10
2018-02-19T00:36:51.929Z,45.60
2018-02-19T00:39:22.015Z,45.07
2018-02-19T00:41:50.576Z,40.70
2018-02-19T00:44:19.163Z,46.47
2018-02-19T00:46:47.686Z,46.47
2018-02-19T00:49:16.856Z,48.60
2018-02-19T00:51:45.411Z,53.40
2018-02-19T00:54:16.930Z,42.73
2018-02-19T00:56:46.209Z,45.53
2018-02-19T00:59:14.684Z,46.53
2018-02-19T01:01:43.845Z,50.37
2018-02-19T01:04:12.244Z,44.17
2018-02-19T01:06:42.488Z,46.83
2018-02-19T01:09:11.629Z,54.43
2018-02-19T01:11:39.987Z,43.70
2018-02-19T01:14:08.361Z,42.30
2018-02-19T01:16:37.677Z,40.70
2018-02-19T01:19:06.171Z,45.60
2018-02-19T01:21:34.634Z,52.20
2018-02-19T01:24:03.159Z,45.53
2018-02-19T01:26:31.556Z,43.70
2018-02-19T01:29:00.092Z,48.53
2018-02-19T01:31:28.472Z,51.70
2018-02-19T01:33:57.130Z,45.03
2018-02-19T01:36:25.488Z,46.37
2018-02-19T01:38:54.812Z,50.83
2018-02-19T01:41:23.203Z,43.80
2018-02-19T01:43:51.584Z,50.10
2018-02-19T01:46:19.959Z,51.03
2018-02-19T01:48:49.130Z,52.27
2018-02-19T01:51:17.506Z,48.00
2018-02-19T01:53:46.944Z,50.27
2018-02-19T01:56:15.575Z,49.53
2018-02-19T01:58:44.012Z,51.37
2018-02-19T02:01:12.220Z,57.77
2018-02-19T02:03:42.323Z,51.63
2018-02-19T02:06:10.990Z,45.50
2018-02-19T02:08:39.352Z,49.33
2018-02-19T02:11:07.837Z,49.70
2018-02-19T02:13:36.373Z,45.57
2018-02-19T02:16:04.731Z,58.93
2018-02-19T02:18:33.179Z,49.60
2018-02-19T02:21:01.236Z,52.90
2018-02-19T02:23:29.737Z,52.63
2018-02-19T02:25:58.269Z,56.10
2018-02-19T02:28:27.415Z,52.97
2018-02-19T02:30:55.782Z,61.03
2018-02-19T02:33:24.452Z,56.83
2018-02-19T02:35:53.064Z,55.80
2018-02-19T02:38:21.588Z,55.67
2018-02-19T02:40:49.962Z,52.70
2018-02-19T02:43:18.101Z,56.50
2018-02-19T02:45:46.622Z,57.50
2018-02-19T02:48:15.814Z,55.10
2018-02-19T02:50:45.428Z,56.93
2018-02-19T02:53:14.569Z,54.60
2018-02-19T02:55:43.133Z,56.93
2018-02-19T02:58:11.538Z,60.40
2018-02-19T03:00:39.902Z,63.53
2018-02-19T03:03:08.259Z,59.67
2018-02-19T03:05:37.491Z,59.63
2018-02-19T03:08:06.036Z,56.67
2018-02-19T03:10:35.170Z,54.20
2018-02-19T03:13:03.590Z,53.90
2018-02-19T03:15:32.767Z,49.83
2018-02-19T03:18:01.330Z,56.93
2018-02-19T03:20:29.765Z,62.77
2018-02-19T03:22:58.920Z,49.57
2018-02-19T03:25:27.331Z,55.10
2018-02-19T03:27:56.635Z,55.27
2018-02-19T03:30:26.037Z,55.70
2018-02-19T03:32:55.175Z,50.73
2018-02-19T03:35:23.682Z,61.13
2018-02-19T03:37:52.186Z,51.50
2018-02-19T03:40:21.486Z,56.00
2018-02-19T03:42:50.838Z,54.87
2018-02-19T03:45:19.417Z,56.13
2018-02-19T03:47:47.925Z,50.37
2018-02-19T03:50:16.399Z,53.17
2018-02-19T03:52:44.790Z,55.60
2018-02-19T03:55:13.203Z,59.53
2018-02-19T03:57:42.335Z,56.47
2018-02-19T04:00:10.042Z,54.13
2018-02-19T04:02:38.430Z,57.57
2018-02-19T04:05:07.711Z,54.50
2018-02-19T04:07:35.763Z,62.37
2018-02-19T04:10:03.459Z,56.53
2018-02-19T04:12:32.609Z,57.37
2018-02-19T04:15:00.966Z,57.33
2018-02-19T04:17:29.586Z,50.13
2018-02-19T04:19:58.050Z,58.83
2018-02-19T04:22:26.553Z,60.80
2018-02-19T04:24:54.923Z,53.47
2018-02-19T04:27:23.291Z,54.87
2018-02-19T04:29:51.672Z,56.03
2018-02-19T04:32:20.080Z,53.40
2018-02-19T04:34:49.236Z,50.40
2018-02-19T04:37:17.829Z,52.17
2018-02-19T04:39:46.294Z,51.47
2018-02-19T04:42:14.497Z,56.70
2018-02-19T04:44:44.680Z,48.50
2018-02-19T04:47:13.036Z,47.40
2018-02-19T04:49:41.405Z,50.90
2018-02-19T04:52:10.740Z,48.10
2018-02-19T04:54:39.204Z,50.80
2018-02-19T04:57:07.389Z,48.20
2018-02-19T04:59:35.920Z,51.23
2018-02-19T05:02:04.460Z,51.90
2018-02-19T05:04:32.905Z,53.20
2018-02-19T05:07:02.049Z,53.77
2018-02-19T05:09:30.582Z,49.43
2018-02-19T05:11:59.726Z,51.23
2018-02-19T05:14:28.133Z,45.80
2018-02-19T05:16:56.740Z,47.33
2018-02-19T05:19:26.014Z,50.80
2018-02-19T05:21:54.367Z,45.73
2018-02-19T05:24:22.863Z,43.67
2018-02-19T05:26:51.378Z,50.10
2018-02-19T05:29:20.518Z,49.37
2018-02-19T05:31:49.370Z,48.63
2018-02-19T05:34:18.500Z,49.50
2018-02-19T05:36:47.023Z,45.20
2018-02-19T05:39:15.372Z,51.93
2018-02-19T05:41:43.770Z,53.90
2018-02-19T05:44:12.192Z,44.83
2018-02-19T05:46:40.830Z,46.20
2018-02-19T05:49:09.220Z,45.60
2018-02-19T05:51:37.574Z,45.30
2018-02-19T05:54:06.030Z,50.37
2018-02-19T05:56:34.453Z,47.87
2018-02-19T05:59:02.804Z,43.00
2018-02-19T06:01:32.416Z,46.63
2018-02-19T06:04:00.824Z,45.90
2018-02-19T06:06:29.240Z,47.50
2018-02-19T06:08:58.549Z,42.10
2018-02-19T06:11:26.967Z,50.37
2018-02-19T06:13:55.718Z,42.37
2018-02-19T06:16:24.112Z,44.23
2018-02-19T06:18:52.485Z,46.40
2018-02-19T06:21:20.880Z,42.37
2018-02-19T06:23:48.629Z,45.00
2018-02-19T06:26:17.911Z,44.23
2018-02-19T06:28:46.284Z,42.80
2018-02-19T06:31:14.695Z,40.77
2018-02-19T06:33:43.348Z,46.37
2018-02-19T06:36:11.702Z,42.63
2018-02-19T06:38:40.997Z,38.27
2018-02-19T06:41:10.232Z,42.80
2018-02-19T06:43:38.757Z,43.23
2018-02-19T06:46:07.112Z,41.93
2018-02-19T06:48:35.701Z,44.07
2018-02-19T06:51:04.098Z,43.93
2018-02-19T06:53:32.480Z,47.90
2018-02-19T06:56:01.605Z,45.73
2018-02-19T06:58:29.996Z,40.33
2018-02-19T07:00:58.382Z,44.73
2018-02-19T07:03:26.739Z,42.27
2018-02-19T07:05:55.333Z,47.10
2018-02-19T07:08:23.684Z,44.90
2018-02-19T07:10:52.818Z,41.30
2018-02-19T07:13:21.975Z,43.30
2018-02-19T07:15:51.264Z,44.30
2018-02-19T07:18:20.379Z,40.20
2018-02-19T07:20:48.897Z,43.97
2018-02-19T07:23:17.244Z,42.80
2018-02-19T07:25:45.603Z,40.90
2018-02-19T07:28:14.748Z,43.13
2018-02-19T07:30:43.150Z,43.67
2018-02-19T07:33:11.516Z,43.93
2018-02-19T07:35:40.117Z,40.80
2018-02-19T07:38:08.476Z,43.17
2018-02-19T07:40:36.861Z,42.47
2018-02-19T07:43:05.280Z,41.57
2018-02-19T07:45:33.662Z,41.47
2018-02-19T07:48:02.143Z,45.23
2018-02-19T07:50:30.507Z,42.30
2018-02-19T07:52:59.060Z,40.10
2018-02-19T07:55:28.341Z,46.03
2018-02-19T07:57:56.724Z,40.63
2018-02-19T08:00:25.096Z,40.77
2018-02-19T08:02:53.550Z,42.07
2018-02-19T08:05:22.077Z,35.83
2018-02-19T08:07:50.456Z,39.23
2018-02-19T08:10:18.910Z,38.10
2018-02-19T08:12:47.277Z,38.20
2018-02-19T08:15:15.637Z,42.47
2018-02-19T08:17:44.172Z,40.63
2018-02-19T08:20:12.732Z,40.90
2018-02-19T08:22:41.127Z,46.00
2018-02-19T08:25:10.115Z,37.70
2018-02-19T08:27:38.486Z,37.50
2018-02-19T08:30:06.883Z,39.40
2018-02-19T08:32:35.995Z,38.63
2018-02-19T08:35:05.141Z,38.67
2018-02-19T08:37:33.484Z,40.80
2018-02-19T08:40:02.603Z,38.20
2018-02-19T08:42:30.962Z,37.27
2018-02-19T08:45:00.092Z,38.90
2018-02-19T08:47:28.449Z,42.60
2018-02-19T08:49:56.812Z,43.13
2018-02-19T08:52:25.943Z,37.17
2018-02-19T08:54:54.326Z,42.60
2018-02-19T08:57:22.700Z,40.17
2018-02-19T08:59:51.066Z,39.60
2018-02-19T09:02:19.485Z,36.73
2018-02-19T09:04:47.870Z,38.67
2018-02-19T09:07:16.351Z,36.97
2018-02-19T09:09:44.724Z,36.87
2018-02-19T09:12:13.090Z,37.10
2018-02-19T09:14:41.488Z,40.83
2018-02-19T09:17:09.900Z,38.03
2018-02-19T09:19:38.586Z,40.57
2018-02-19T09:22:06.961Z,40.63
2018-02-19T09:24:35.360Z,35.63
2018-02-19T09:27:04.020Z,38.57
2018-02-19T09:29:32.451Z,42.60
2018-02-19T09:32:00.898Z,45.70
2018-02-19T09:34:29.255Z,39.70
2018-02-19T09:36:57.826Z,36.40
2018-02-19T09:39:26.938Z,36.40
2018-02-19T09:41:55.330Z,40.73
2018-02-19T09:44:24.183Z,41.07
2018-02-19T09:46:52.574Z,40.07
2018-02-19T09:49:22.051Z,46.37
2018-02-19T09:51:50.502Z,40.23
2018-02-19T09:54:19.055Z,36.80
2018-02-19T09:56:47.411Z,41.37
2018-02-19T09:59:16.554Z,36.80
2018-02-19T10:01:44.913Z,36.20
2018-02-19T10:04:13.301Z,43.17
2018-02-19T10:06:42.097Z,52.00
2018-02-19T10:09:10.462Z,40.60
2018-02-19T10:11:38.818Z,36.87
2018-02-19T10:14:07.251Z,39.40
2018-02-19T10:16:35.695Z,41.10
2018-02-19T10:19:04.130Z,40.83
2018-02-19T10:21:33.289Z,37.50
2018-02-19T10:24:01.637Z,45.37
2018-02-19T10:26:29.992Z,42.37
2018-02-19T10:28:59.131Z,40.20
2018-02-19T10:31:27.480Z,37.60
2018-02-19T10:33:56.603Z,43.10
2018-02-19T10:36:31.039Z,35.33
2018-02-19T10:38:59.671Z,40.83
2018-02-19T10:41:28.809Z,37.00
2018-02-19T10:43:57.337Z,36.30
2018-02-19T10:46:26.523Z,38.40
2018-02-19T10:48:54.921Z,40.27
2018-02-19T10:51:24.059Z,42.93
2018-02-19T10:53:52.413Z,35.53
2018-02-19T10:56:20.781Z,40.50
2018-02-19T10:58:49.915Z,35.50
2018-02-19T11:01:18.332Z,38.47
2018-02-19T11:03:46.684Z,43.13
2018-02-19T11:06:15.054Z,39.47
2018-02-19T11:08:43.446Z,38.40
2018-02-19T11:11:11.904Z,37.33
2018-02-19T11:13:40.274Z,34.53
2018-02-19T11:16:08.637Z,38.70
2018-02-19T11:18:37.043Z,36.80
2018-02-19T11:21:05.488Z,37.60
2018-02-19T11:23:34.632Z,38.63
2018-02-19T11:26:03.008Z,36.37
2018-02-19T11:28:31.524Z,36.63
2018-02-19T11:31:00.775Z,37.40
2018-02-19T11:33:29.221Z,38.57
2018-02-19T11:35:58.343Z,37.97
2018-02-19T11:38:26.740Z,35.83
2018-02-19T11:40:55.119Z,35.97
2018-02-19T11:43:23.471Z,32.50
2018-02-19T11:45:52.016Z,37.20
2018-02-19T11:48:21.164Z,41.10
2018-02-19T11:50:49.861Z,36.40
2018-02-19T11:53:18.275Z,37.70
2018-02-19T11:55:48.102Z,38.90
2018-02-19T11:58:18.089Z,37.07
2018-02-19T12:00:46.560Z,38.87
2018-02-19T12:03:14.931Z,42.00
2018-02-19T12:05:43.956Z,35.53
2018-02-19T12:08:13.226Z,36.77
2018-02-19T12:10:41.778Z,35.63
2018-02-19T12:13:10.201Z,36.60
2018-02-19T12:15:38.557Z,37.50
2018-02-19T12:18:07.017Z,34.23
2018-02-19T12:20:36.051Z,38.50
2018-02-19T12:23:05.184Z,40.00
2018-02-19T12:25:33.710Z,38.70
2018-02-19T12:28:02.205Z,37.33
2018-02-19T12:30:30.593Z,37.10
2018-02-19T12:32:58.954Z,39.10
2018-02-19T12:35:27.578Z,37.57
2018-02-19T12:37:56.724Z,41.87
2018-02-19T12:40:25.205Z,38.23
2018-02-19T12:42:53.673Z,39.10
2018-02-19T12:45:22.016Z,33.50
2018-02-19T12:47:50.404Z,39.20
2018-02-19T12:50:19.036Z,34.80
2018-02-19T12:52:47.473Z,39.40
2018-02-19T12:55:16.508Z,36.60
2018-02-19T12:57:44.876Z,35.03
2018-02-19T13:00:13.246Z,38.07
2018-02-19T13:02:41.705Z,36.50
2018-02-19T13:05:10.164Z,35.40
2018-02-19T13:07:38.641Z,38.40
2018-02-19T13:10:07.184Z,40.53
2018-02-19T13:12:35.559Z,36.10
2018-02-19T13:15:04.560Z,36.70
2018-02-19T13:17:32.945Z,35.17
2018-02-19T13:20:01.575Z,36.40
2018-02-19T13:22:30.080Z,38.23
2018-02-19T13:24:58.493Z,36.37
2018-02-19T13:27:26.863Z,40.03
2018-02-19T13:29:55.236Z,31.07
2018-02-19T13:32:23.587Z,41.50
2018-02-19T13:34:51.999Z,40.73
2018-02-19T13:37:20.368Z,41.27
2018-02-19T13:39:48.727Z,38.97
2018-02-19T13:42:17.092Z,39.63
2018-02-19T13:44:46.662Z,39.77
2018-02-19T13:47:15.810Z,35.60
2018-02-19T13:49:44.174Z,36.80
2018-02-19T13:52:12.559Z,40.10
2018-02-19T13:54:40.934Z,38.70
2018-02-19T13:57:09.304Z,37.50
2018-02-19T13:59:38.415Z,36.83
2018-02-19T14:02:06.797Z,37.80
2018-02-19T14:04:35.364Z,35.47
2018-02-19T14:07:03.737Z,36.40
2018-02-19T14:09:32.434Z,45.57
2018-02-19T14:12:00.952Z,38.20
2018-02-19T14:14:29.335Z,37.70
2018-02-19T14:16:58.484Z,37.33
2018-02-19T14:19:26.855Z,38.30
2018-02-19T14:21:55.227Z,38.00
2018-02-19T14:24:24.121Z,39.17
2018-02-19T14:26:52.374Z,38.90
2018-02-19T14:29:20.951Z,41.00
2018-02-19T14:31:50.078Z,42.20
2018-02-19T14:34:18.439Z,37.13
2018-02-19T14:36:46.812Z,39.57
2018-02-19T14:39:15.170Z,41.80
2018-02-19T14:41:44.302Z,33.90
2018-02-19T14:44:12.715Z,35.60
2018-02-19T14:46:41.079Z,37.53
2018-02-19T14:49:09.459Z,43.83
2018-02-19T14:51:37.921Z,42.70
2018-02-19T14:54:06.296Z,43.20
2018-02-19T14:56:34.779Z,36.10
2018-02-19T14:59:03.137Z,39.63
2018-02-19T15:01:34.739Z,36.27
2018-02-19T15:04:03.127Z,36.47
2018-02-19T15:06:31.511Z,33.70
2018-02-19T15:09:00.052Z,39.87
2018-02-19T15:11:28.598Z,40.40
2018-02-19T15:13:57.744Z,35.07
2018-02-19T15:16:26.338Z,38.50
2018-02-19T15:18:54.720Z,36.93
2018-02-19T15:21:23.090Z,39.17
2018-02-19T15:23:51.481Z,38.80
2018-02-19T15:26:20.030Z,36.00
2018-02-19T15:28:48.426Z,32.23
2018-02-19T15:31:16.824Z,36.27
2018-02-19T15:33:45.517Z,37.03
2018-02-19T15:36:13.931Z,39.60
2018-02-19T15:38:42.292Z,33.37
2018-02-19T15:41:11.413Z,36.53
2018-02-19T15:43:39.801Z,35.83
2018-02-19T15:46:08.168Z,38.10
2018-02-19T15:48:36.609Z,31.30
2018-02-19T15:51:04.976Z,35.57
2018-02-19T15:53:33.379Z,38.90
2018-02-19T15:56:02.663Z,36.03
2018-02-19T15:58:31.037Z,36.40
2018-02-19T16:01:00.524Z,37.87
2018-02-19T16:03:28.925Z,30.27
2018-02-19T16:05:57.287Z,39.30
2018-02-19T16:08:26.108Z,37.03
2018-02-19T16:10:55.283Z,34.37
2018-02-19T16:13:23.640Z,36.23
2018-02-19T16:15:52.016Z,39.83
2018-02-19T16:18:20.384Z,34.73
2018-02-19T16:20:48.774Z,34.87
2018-02-19T16:23:17.280Z,35.10
2018-02-19T16:25:45.704Z,33.30
2018-02-19T16:28:14.260Z,45.20
2018-02-19T16:30:43.617Z,35.43
2018-02-19T16:33:12.189Z,34.00
2018-02-19T16:35:40.590Z,38.53
2018-02-19T16:38:08.979Z,45.43
2018-02-19T16:40:37.569Z,38.20
2018-02-19T16:43:07.081Z,40.20
2018-02-19T16:45:36.385Z,39.47
2018-02-19T16:48:05.547Z,36.53
2018-02-19T16:50:34.034Z,40.00
2018-02-19T16:53:02.644Z,40.13
2018-02-19T16:55:31.808Z,42.43
2018-02-19T16:58:00.341Z,43.60
2018-02-19T17:00:29.101Z,40.67
2018-02-19T17:02:58.369Z,37.60
2018-02-19T17:05:26.748Z,46.47
2018-02-19T17:07:55.124Z,40.90
2018-02-19T17:10:23.806Z,40.07
2018-02-19T17:12:52.341Z,40.60
2018-02-19T17:15:20.783Z,43.43
2018-02-19T17:17:49.412Z,41.17
2018-02-19T17:20:17.958Z,39.00
2018-02-19T17:22:46.933Z,41.97
2018-02-19T17:25:15.304Z,37.40
2018-02-19T17:27:43.803Z,47.53
2018-02-19T17:30:12.185Z,39.37
2018-02-19T17:32:40.617Z,44.73
2018-02-19T17:35:09.500Z,41.73
2018-02-19T17:37:38.112Z,38.53
2018-02-19T17:40:06.546Z,49.70
2018-02-19T17:42:34.959Z,43.97
2018-02-19T17:45:03.936Z,41.10
2018-02-19T17:47:32.487Z,50.33
2018-02-19T17:50:01.659Z,38.00
2018-02-19T17:52:30.100Z,40.80
2018-02-19T17:54:58.643Z,43.33
2018-02-19T17:57:27.773Z,46.93
2018-02-19T17:59:56.221Z,47.13
2018-02-19T18:02:25.416Z,38.83
2018-02-19T18:04:54.811Z,43.70
2018-02-19T18:07:24.377Z,42.73
2018-02-19T18:09:52.892Z,40.47
2018-02-19T18:12:21.431Z,45.57
2018-02-19T18:14:49.955Z,38.53
2018-02-19T18:17:18.439Z,36.83
2018-02-19T18:19:46.500Z,43.50
2018-02-19T18:22:14.889Z,47.47
2018-02-19T18:24:44.024Z,44.83
2018-02-19T18:27:12.460Z,41.30
2018-02-19T18:29:40.899Z,43.73
2018-02-19T18:32:09.308Z,42.27
2018-02-19T18:34:37.693Z,45.83
2018-02-19T18:37:06.142Z,41.40
2018-02-19T18:39:34.642Z,42.90
2018-02-19T18:42:03.030Z,40.73
2018-02-19T18:44:31.529Z,44.70
2018-02-19T18:47:00.764Z,43.03
2018-02-19T18:49:29.151Z,47.90
2018-02-19T18:51:57.541Z,42.83
2018-02-19T18:54:25.916Z,40.70
2018-02-19T18:56:54.296Z,39.73
2018-02-19T18:59:22.680Z,41.10
2018-02-19T19:01:51.224Z,37.00
2018-02-19T19:04:19.928Z,39.07
2018-02-19T19:06:48.508Z,40.53
2018-02-19T19:09:28.124Z,42.30
2018-02-19T19:11:56.499Z,42.77
2018-02-19T19:14:25.072Z,38.27
2018-02-19T19:16:54.317Z,42.57
2018-02-19T19:19:22.781Z,41.00
2018-02-19T19:21:51.166Z,37.07
2018-02-19T19:24:19.604Z,42.50
2018-02-19T19:26:48.924Z,41.37
2018-02-19T19:29:17.344Z,46.13
2018-02-19T19:31:45.716Z,56.33
2018-02-19T19:34:14.111Z,45.67
2018-02-19T19:36:42.624Z,47.20
2018-02-19T19:39:11.982Z,44.33
2018-02-19T19:41:40.372Z,44.83
2018-02-19T19:44:08.739Z,41.60
2018-02-19T19:46:37.158Z,43.73
2018-02-19T19:49:05.553Z,38.73
2018-02-19T19:51:34.224Z,50.13
2018-02-19T19:54:03.659Z,53.13
2018-02-19T19:56:32.036Z,42.10
2018-02-19T19:59:00.415Z,49.80
2018-02-19T20:01:28.841Z,51.60
2018-02-19T20:03:57.984Z,42.07
2018-02-19T20:06:26.552Z,41.10
2018-02-19T20:08:54.852Z,44.40
2018-02-19T20:11:23.236Z,44.80
2018-02-19T20:13:51.812Z,43.33
2018-02-19T20:16:20.606Z,41.27
2018-02-19T20:18:49.038Z,47.23
2018-02-19T20:21:17.498Z,51.33
2018-02-19T20:23:46.063Z,50.10
2018-02-19T20:26:14.627Z,44.23
2018-02-19T20:28:43.034Z,52.53
2018-02-19T20:31:11.543Z,49.60
2018-02-19T20:33:40.068Z,45.50
2018-02-19T20:36:08.564Z,45.90
2018-02-19T20:38:37.012Z,45.90
2018-02-19T20:41:05.413Z,55.13
2018-02-19T20:43:34.088Z,54.27
2018-02-19T20:46:02.612Z,50.17
2018-02-19T20:48:31.185Z,48.13
2018-02-19T20:50:59.556Z,48.30
2018-02-19T20:53:28.229Z,44.97
2018-02-19T20:55:56.721Z,47.63
2018-02-19T20:58:25.109Z,47.90
2018-02-19T21:00:53.522Z,48.50
2018-02-19T21:03:22.768Z,58.87
2018-02-19T21:05:52.974Z,65.70
2018-02-19T21:08:21.348Z,63.90
2018-02-19T21:10:50.646Z,62.73
2018-02-19T21:13:19.068Z,52.37
2018-02-19T21:15:47.523Z,49.47
2018-02-19T21:18:15.945Z,50.07
2018-02-19T21:20:45.155Z,51.97
2018-02-19T21:23:14.336Z,51.37
2018-02-19T21:25:42.777Z,50.00
2018-02-19T21:28:11.201Z,48.83
2018-02-19T21:30:40.625Z,46.93
2018-02-19T21:33:09.049Z,50.90
2018-02-19T21:35:37.460Z,46.73
2018-02-19T21:38:07.002Z,49.13
2018-02-19T21:40:35.450Z,43.73
2018-02-19T21:43:04.897Z,46.60
2018-02-19T21:45:33.942Z,46.87
2018-02-19T21:48:03.111Z,56.53
2018-02-19T21:50:31.549Z,47.80
2018-02-19T21:53:00.171Z,51.63
2018-02-19T21:55:28.534Z,43.87
2018-02-19T21:57:57.070Z,44.83
2018-02-19T22:00:26.256Z,45.60
2018-02-19T22:02:55.403Z,53.03
2018-02-19T22:05:23.764Z,44.47
2018-02-19T22:07:52.256Z,49.10
2018-02-19T22:10:20.840Z,46.60
2018-02-19T22:12:49.219Z,53.20
2018-02-19T22:15:17.596Z,50.40
2018-02-19T22:17:45.992Z,45.63
2018-02-19T22:20:14.712Z,42.33
2018-02-19T22:22:43.448Z,43.33
2018-02-19T22:25:11.825Z,48.60
2018-02-19T22:27:40.214Z,47.07
2018-02-19T22:30:08.623Z,53.80
2018-02-19T22:32:37.055Z,47.37
2018-02-19T22:35:05.425Z,44.20
2018-02-19T22:37:34.327Z,48.67
2018-02-19T22:40:02.767Z,46.80
2018-02-19T22:42:31.917Z,46.63
2018-02-19T22:45:00.440Z,42.80
2018-02-19T22:47:29.734Z,44.43
2018-02-19T22:49:58.890Z,44.33
2018-02-19T22:52:27.288Z,43.50
2018-02-19T22:54:55.840Z,41.03
2018-02-19T22:57:24.389Z,44.13
2018-02-19T22:59:53.589Z,43.53
2018-02-19T23:02:22.934Z,43.70
2018-02-19T23:04:52.264Z,47.73
2018-02-19T23:07:20.654Z,46.37
2018-02-19T23:09:49.817Z,47.40
2018-02-19T23:12:18.326Z,44.60
2018-02-19T23:14:46.776Z,43.23
2018-02-19T23:17:15.201Z,44.90
2018-02-19T23:19:44.389Z,47.50
2018-02-19T23:22:13.563Z,44.63
2018-02-19T23:24:42.014Z,53.10
2018-02-19T23:27:10.429Z,42.20
2018-02-19T23:29:38.912Z,42.53
2018-02-19T23:32:07.472Z,47.93
2018-02-19T23:34:35.175Z,43.00
2018-02-19T23:37:04.368Z,42.00
2018-02-19T23:39:33.855Z,44.03
2018-02-19T23:42:02.371Z,44.90
2018-02-19T23:44:30.922Z,48.47
2018-02-19T23:47:00.802Z,40.77
2018-02-19T23:49:29.212Z,48.40
2018-02-19T23:51:57.881Z,45.43
2018-02-19T23:54:31.790Z,56.30
2018-02-19T23:57:00.319Z,40.47
2018-02-19T23:59:28.688Z,42.30
